Time,TemperatureF,DewpointF,PressureIn,WindDirection,WindDirectionDegrees,WindSpeedMPH,WindSpeedGustMPH,Humidity,HourlyPrecipIn,Conditions,Clouds,dailyrainin,SoftwareType,DateUTC
2013-08-03 00:07:00,87.8,71.0,29.89,ESE,121,3.0,7.0,57,0.00,,,0.00,weatherlink.com 1.10,2013-08-03 05:07:00,
2013-08-03 00:20:00,87.4,71.0,29.90,SSE,150,2.0,8.0,58,0.00,,,0.00,weatherlink.com 1.10,2013-08-03 05:20:00,
2013-08-03 00:35:00,87.0,70.0,29.89,SE,138,2.0,10.0,58,0.00,,,0.00,weatherlink.com 1.10,2013-08-03 05:35:00,
2013-08-03 00:51:00,86.6,71.0,29.90,ESE,108,2.0,8.0,59,0.00,,,0.00,weatherlink.com 1.10,2013-08-03 05:51:00,
2013-08-03 01:06:00,86.4,70.0,29.89,SE,124,3.0,8.0,59,0.00,,,0.00,weatherlink.com 1.10,2013-08-03 06:06:00,
2013-08-03 01:21:00,86.1,71.0,29.90,South,170,1.0,7.0,60,0.00,,,0.00,weatherlink.com 1.10,2013-08-03 06:21:00,
2013-08-03 01:36:00,85.7,71.0,29.91,ESE,118,2.0,9.0,61,0.00,,,0.00,weatherlink.com 1.10,2013-08-03 06:36:00,
2013-08-03 01:51:00,85.5,71.0,29.91,SE,141,1.0,8.0,62,0.00,,,0.00,weatherlink.com 1.10,2013-08-03 06:51:00,
2013-08-03 02:06:00,84.9,71.0,29.91,South,181,1.0,6.0,64,0.00,,,0.00,weatherlink.com 1.10,2013-08-03 07:06:00,
2013-08-03 02:21:00,84.5,71.0,29.91,ESE,115,4.0,7.0,65,0.00,,,0.00,weatherlink.com 1.10,2013-08-03 07:21:00,
2013-08-03 02:37:00,84.1,72.0,29.91,West,270,1.0,8.0,66,0.00,,,0.00,weatherlink.com 1.10,2013-08-03 07:37:00,
2013-08-03 02:51:00,83.7,72.0,29.91,ESE,118,1.0,8.0,67,0.00,,,0.00,weatherlink.com 1.10,2013-08-03 07:51:00,
2013-08-03 03:07:00,83.4,71.0,29.91,SSW,192,1.0,7.0,67,0.00,,,0.00,weatherlink.com 1.10,2013-08-03 08:07:00,
2013-08-03 03:21:00,83.0,71.0,29.91,SSE,155,0.0,7.0,68,0.00,,,0.00,weatherlink.com 1.10,2013-08-03 08:21:00,
2013-08-03 03:36:00,82.4,71.0,29.92,West,269,3.0,5.0,69,0.00,,,0.00,weatherlink.com 1.10,2013-08-03 08:36:00,
2013-08-03 04:06:00,81.8,71.0,29.92,South,180,3.0,5.0,70,0.00,,,0.00,weatherlink.com 1.10,2013-08-03 09:06:00,
2013-08-03 04:21:00,81.5,71.0,29.91,SSW,210,1.0,6.0,70,0.00,,,0.00,weatherlink.com 1.10,2013-08-03 09:21:00,
2013-08-03 04:36:00,80.9,71.0,29.91,SE,135,0.0,4.0,71,0.00,,,0.00,weatherlink.com 1.10,2013-08-03 09:36:00,
2013-08-03 04:51:00,80.5,71.0,29.91,SSW,208,2.0,4.0,72,0.00,,,0.00,weatherlink.com 1.10,2013-08-03 09:51:00,
2013-08-03 05:21:00,79.7,71.0,29.91,SSW,197,1.0,3.0,75,0.00,,,0.00,weatherlink.com 1.10,2013-08-03 10:21:00,
2013-08-03 05:36:00,79.3,71.0,29.92,South,188,1.0,5.0,76,0.00,,,0.00,weatherlink.com 1.10,2013-08-03 10:36:00,
2013-08-03 06:06:00,78.5,71.0,29.93,SSE,160,3.0,4.0,78,0.00,,,0.00,weatherlink.com 1.10,2013-08-03 11:06:00,
2013-08-03 06:21:00,78.2,71.0,29.93,SSE,166,1.0,4.0,79,0.00,,,0.00,weatherlink.com 1.10,2013-08-03 11:21:00,
2013-08-03 06:36:00,77.8,71.0,29.94,SSE,163,0.0,5.0,80,0.00,,,0.00,weatherlink.com 1.10,2013-08-03 11:36:00,
2013-08-03 07:06:00,77.3,71.0,29.94,SSW,210,2.0,4.0,82,0.00,,,0.00,weatherlink.com 1.10,2013-08-03 12:06:00,
2013-08-03 07:21:00,77.4,72.0,29.94,SW,236,0.0,3.0,83,0.00,,,0.00,weatherlink.com 1.10,2013-08-03 12:21:00,
2013-08-03 07:36:00,78.9,73.0,29.95,SW,236,1.0,4.0,82,0.00,,,0.00,weatherlink.com 1.10,2013-08-03 12:36:00,
2013-08-03 07:51:00,80.4,74.0,29.95,SE,124,2.0,4.0,80,0.00,,,0.00,weatherlink.com 1.10,2013-08-03 12:51:00,
2013-08-03 08:06:00,80.9,74.0,29.96,WSW,239,4.0,6.0,80,0.00,,,0.00,weatherlink.com 1.10,2013-08-03 13:06:00,
2013-08-03 08:21:00,81.8,75.0,29.96,ESE,108,1.0,6.0,79,0.00,,,0.00,weatherlink.com 1.10,2013-08-03 13:21:00,
2013-08-03 08:36:00,82.3,75.0,29.96,ENE,58,2.0,11.0,78,0.00,,,0.00,weatherlink.com 1.10,2013-08-03 13:36:00,
2013-08-03 08:51:00,83.0,75.0,29.97,SE,124,3.0,10.0,77,0.00,,,0.00,weatherlink.com 1.10,2013-08-03 13:51:00,
2013-08-03 09:06:00,84.7,76.0,29.97,WSW,239,1.0,6.0,75,0.00,,,0.00,weatherlink.com 1.10,2013-08-03 14:06:00,
2013-08-03 09:21:00,85.6,76.0,29.97,SE,127,3.0,8.0,73,0.00,,,0.00,weatherlink.com 1.10,2013-08-03 14:21:00,
2013-08-03 09:36:00,85.7,75.0,29.97,SW,236,2.0,10.0,71,0.00,,,0.00,weatherlink.com 1.10,2013-08-03 14:36:00,
2013-08-03 09:51:00,87.2,76.0,29.98,SE,146,2.0,6.0,70,0.00,,,0.00,weatherlink.com 1.10,2013-08-03 14:51:00,
2013-08-03 10:06:00,88.0,76.0,29.98,ESE,108,1.0,7.0,67,0.00,,,0.00,weatherlink.com 1.10,2013-08-03 15:06:00,
2013-08-03 10:21:00,88.9,76.0,29.98,SE,143,3.0,6.0,66,0.00,,,0.00,weatherlink.com 1.10,2013-08-03 15:21:00,
2013-08-03 10:36:00,90.3,77.0,29.98,SW,226,3.0,6.0,64,0.00,,,0.00,weatherlink.com 1.10,2013-08-03 15:36:00,
2013-08-03 10:51:00,90.5,76.0,29.98,SW,215,3.0,6.0,63,0.00,,,0.00,weatherlink.com 1.10,2013-08-03 15:51:00,
2013-08-03 11:51:00,93.6,75.0,29.98,WSW,252,4.0,6.0,55,0.00,,,0.00,weatherlink.com 1.10,2013-08-03 16:51:00,
2013-08-03 12:06:00,93.8,74.0,29.98,West,271,2.0,9.0,53,0.00,,,0.00,weatherlink.com 1.10,2013-08-03 17:06:00,
2013-08-03 12:21:00,94.6,74.0,29.97,ENE,59,2.0,6.0,51,0.00,,,0.00,weatherlink.com 1.10,2013-08-03 17:21:00,
2013-08-03 12:36:00,95.3,74.0,29.97,SW,215,1.0,7.0,50,0.00,,,0.00,weatherlink.com 1.10,2013-08-03 17:36:00,
2013-08-03 12:52:00,96.3,72.0,29.97,East,97,1.0,8.0,46,0.00,,,0.00,weatherlink.com 1.10,2013-08-03 17:52:00,
2013-08-03 13:06:00,96.6,73.0,29.96,East,97,2.0,7.0,46,0.00,,,0.00,weatherlink.com 1.10,2013-08-03 18:06:00,
2013-08-03 13:21:00,97.1,72.0,29.96,SW,215,2.0,6.0,44,0.00,,,0.00,weatherlink.com 1.10,2013-08-03 18:21:00,
2013-08-03 13:36:00,97.8,72.0,29.95,SSE,162,2.0,10.0,43,0.00,,,0.00,weatherlink.com 1.10,2013-08-03 18:36:00,
2013-08-03 13:52:00,98.4,73.0,29.94,SE,142,2.0,6.0,44,0.00,,,0.00,weatherlink.com 1.10,2013-08-03 18:52:00,
2013-08-03 14:06:00,98.4,72.0,29.94,ESE,103,3.0,7.0,43,0.00,,,0.00,weatherlink.com 1.10,2013-08-03 19:06:00,
2013-08-03 14:21:00,99.0,71.0,29.94,WSW,248,5.0,7.0,41,0.00,,,0.00,weatherlink.com 1.10,2013-08-03 19:21:00,
2013-08-03 14:36:00,99.0,73.0,29.94,SW,228,6.0,8.0,43,0.00,,,0.00,weatherlink.com 1.10,2013-08-03 19:36:00,
2013-08-03 14:53:00,99.9,72.0,29.93,SSW,203,2.0,7.0,41,0.00,,,0.00,weatherlink.com 1.10,2013-08-03 19:53:00,
2013-08-03 15:07:00,100.4,70.0,29.93,SE,145,2.0,7.0,37,0.00,,,0.00,weatherlink.com 1.10,2013-08-03 20:07:00,
2013-08-03 15:22:00,101.0,71.0,29.92,East,92,6.0,7.0,38,0.00,,,0.00,weatherlink.com 1.10,2013-08-03 20:22:00,
2013-08-03 15:52:00,100.3,70.0,29.92,WNW,300,1.0,8.0,38,0.00,,,0.00,weatherlink.com 1.10,2013-08-03 20:52:00,
2013-08-03 16:06:00,100.3,69.0,29.92,SE,136,2.0,10.0,36,0.00,,,0.00,weatherlink.com 1.10,2013-08-03 21:06:00,
2013-08-03 16:21:00,101.3,69.0,29.91,South,174,1.0,5.0,35,0.00,,,0.00,weatherlink.com 1.10,2013-08-03 21:21:00,
2013-08-03 16:37:00,101.4,68.0,29.91,SE,128,3.0,8.0,34,0.00,,,0.00,weatherlink.com 1.10,2013-08-03 21:37:00,
2013-08-03 16:52:00,102.2,68.0,29.91,ESE,121,6.0,8.0,33,0.00,,,0.00,weatherlink.com 1.10,2013-08-03 21:52:00,
2013-08-03 17:07:00,102.0,70.0,29.91,ESE,108,6.0,6.0,36,0.00,,,0.00,weatherlink.com 1.10,2013-08-03 22:07:00,
2013-08-03 17:22:00,101.4,69.0,29.90,SSW,193,1.0,5.0,35,0.00,,,0.00,weatherlink.com 1.10,2013-08-03 22:22:00,
2013-08-03 17:37:00,101.8,69.0,29.90,South,180,1.0,7.0,34,0.00,,,0.00,weatherlink.com 1.10,2013-08-03 22:37:00,
2013-08-03 17:52:00,100.6,68.0,29.90,ESE,105,6.0,9.0,35,0.00,,,0.00,weatherlink.com 1.10,2013-08-03 22:52:00,
2013-08-03 18:07:00,99.3,68.0,29.90,ENE,68,6.0,10.0,36,0.00,,,0.00,weatherlink.com 1.10,2013-08-03 23:07:00,
2013-08-03 18:22:00,98.8,68.0,29.90,ESE,108,5.0,9.0,36,0.00,,,0.00,weatherlink.com 1.10,2013-08-03 23:22:00,
2013-08-03 18:37:00,97.6,67.0,29.90,East,96,6.0,9.0,37,0.00,,,0.00,weatherlink.com 1.10,2013-08-03 23:37:00,
2013-08-03 18:52:00,97.4,67.0,29.90,SE,136,3.0,6.0,37,0.00,,,0.00,weatherlink.com 1.10,2013-08-03 23:52:00,
2013-08-03 19:07:00,96.8,66.0,29.90,East,99,4.0,7.0,37,0.00,,,0.00,weatherlink.com 1.10,2013-08-04 00:07:00,
2013-08-03 19:22:00,96.3,66.0,29.90,ESE,116,4.0,9.0,37,0.00,,,0.00,weatherlink.com 1.10,2013-08-04 00:22:00,
2013-08-03 19:37:00,95.8,66.0,29.90,ESE,115,2.0,11.0,37,0.00,,,0.00,weatherlink.com 1.10,2013-08-04 00:37:00,
2013-08-03 19:52:00,95.0,66.0,29.91,ESE,104,4.0,6.0,38,0.00,,,0.00,weatherlink.com 1.10,2013-08-04 00:52:00,
2013-08-03 20:07:00,94.0,66.0,29.91,East,101,2.0,4.0,40,0.00,,,0.00,weatherlink.com 1.10,2013-08-04 01:07:00,
2013-08-03 20:22:00,92.9,66.0,29.91,ESE,110,1.0,4.0,41,0.00,,,0.00,weatherlink.com 1.10,2013-08-04 01:22:00,
2013-08-03 20:37:00,91.4,66.0,29.92,East,90,1.0,3.0,43,0.00,,,0.00,weatherlink.com 1.10,2013-08-04 01:37:00,
2013-08-03 20:52:00,90.1,66.0,29.91,ESE,107,0.0,2.0,45,0.00,,,0.00,weatherlink.com 1.10,2013-08-04 01:52:00,
2013-08-03 21:07:00,89.6,67.0,29.92,East,95,4.0,4.0,47,0.00,,,0.00,weatherlink.com 1.10,2013-08-04 02:07:00,
2013-08-03 21:22:00,89.7,67.0,29.93,SE,127,4.0,5.0,47,0.00,,,0.00,weatherlink.com 1.10,2013-08-04 02:22:00,
2013-08-03 21:38:00,90.0,67.0,29.93,ESE,103,1.0,5.0,46,0.00,,,0.00,weatherlink.com 1.10,2013-08-04 02:38:00,
2013-08-03 21:52:00,89.9,67.0,29.94,ESE,119,2.0,5.0,47,0.00,,,0.00,weatherlink.com 1.10,2013-08-04 02:52:00,
2013-08-03 22:07:00,89.6,67.0,29.95,East,98,3.0,4.0,48,0.00,,,0.00,weatherlink.com 1.10,2013-08-04 03:07:00,
2013-08-03 22:22:00,88.8,67.0,29.95,ESE,106,0.0,3.0,49,0.00,,,0.00,weatherlink.com 1.10,2013-08-04 03:22:00,
2013-08-03 22:37:00,87.8,68.0,29.95,East,97,2.0,3.0,52,0.00,,,0.00,weatherlink.com 1.10,2013-08-04 03:37:00,
2013-08-03 22:52:00,87.0,68.0,29.96,ESE,105,3.0,4.0,53,0.00,,,0.00,weatherlink.com 1.10,2013-08-04 03:52:00,
2013-08-03 23:07:00,86.4,68.0,29.96,East,101,2.0,4.0,54,0.00,,,0.00,weatherlink.com 1.10,2013-08-04 04:07:00,
2013-08-03 23:22:00,85.9,68.0,29.97,ESE,105,2.0,4.0,56,0.00,,,0.00,weatherlink.com 1.10,2013-08-04 04:22:00,
2013-08-03 23:37:00,85.5,68.0,29.97,East,82,2.0,4.0,57,0.00,,,0.00,weatherlink.com 1.10,2013-08-04 04:37:00,
2013-08-03 23:52:00,84.7,69.0,29.98,ESE,108,1.0,4.0,59,0.00,,,0.00,weatherlink.com 1.10,2013-08-04 04:52:00,